sensor_id;sensor_type;location;lat;lon;timestamp;P1;durP1;ratioP1;P2;durP2;ratioP2
53833;SDS011;39735;51.432;5.482;2023-09-30T00:02:10;26.75;;;8.57;;
53833;SDS011;39735;51.432;5.482;2023-09-30T00:04:36;33.60;;;8.35;;
53833;SDS011;39735;51.432;5.482;2023-09-30T00:07:01;18.98;;;7.70;;
53833;SDS011;39735;51.432;5.482;2023-09-30T00:09:26;16.27;;;6.87;;
53833;SDS011;39735;51.432;5.482;2023-09-30T00:11:52;14.23;;;7.40;;
53833;SDS011;39735;51.432;5.482;2023-09-30T00:14:17;17.85;;;7.25;;
53833;SDS011;39735;51.432;5.482;2023-09-30T00:16:42;17.20;;;7.88;;
53833;SDS011;39735;51.432;5.482;2023-09-30T00:19:08;17.50;;;7.85;;
53833;SDS011;39735;51.432;5.482;2023-09-30T00:21:34;17.23;;;7.53;;
53833;SDS011;39735;51.432;5.482;2023-09-30T00:24:00;12.60;;;6.88;;
53833;SDS011;39735;51.432;5.482;2023-09-30T00:26:25;14.32;;;6.75;;
53833;SDS011;39735;51.432;5.482;2023-09-30T00:28:50;15.27;;;8.68;;
53833;SDS011;39735;51.432;5.482;2023-09-30T00:31:16;16.83;;;5.85;;
53833;SDS011;39735;51.432;5.482;2023-09-30T00:33:41;18.75;;;7.55;;
53833;SDS011;39735;51.432;5.482;2023-09-30T00:36:09;14.00;;;8.13;;
53833;SDS011;39735;51.432;5.482;2023-09-30T00:38:35;18.13;;;9.57;;
53833;SDS011;39735;51.432;5.482;2023-09-30T00:41:00;13.30;;;6.78;;
53833;SDS011;39735;51.432;5.482;2023-09-30T00:43:26;17.60;;;7.18;;
53833;SDS011;39735;51.432;5.482;2023-09-30T00:45:51;24.23;;;7.07;;
53833;SDS011;39735;51.432;5.482;2023-09-30T00:48:21;24.42;;;8.90;;
53833;SDS011;39735;51.432;5.482;2023-09-30T00:50:46;17.85;;;8.25;;
53833;SDS011;39735;51.432;5.482;2023-09-30T00:53:11;20.65;;;11.27;;
53833;SDS011;39735;51.432;5.482;2023-09-30T00:55:37;26.73;;;9.75;;
53833;SDS011;39735;51.432;5.482;2023-09-30T00:58:02;32.67;;;8.38;;
53833;SDS011;39735;51.432;5.482;2023-09-30T01:00:27;20.95;;;8.20;;
53833;SDS011;39735;51.432;5.482;2023-09-30T01:02:53;30.88;;;8.50;;
53833;SDS011;39735;51.432;5.482;2023-09-30T01:05:18;21.52;;;7.80;;
53833;SDS011;39735;51.432;5.482;2023-09-30T01:07:44;24.55;;;8.35;;
53833;SDS011;39735;51.432;5.482;2023-09-30T01:10:09;44.80;;;8.50;;
53833;SDS011;39735;51.432;5.482;2023-09-30T01:12:34;24.30;;;7.75;;
53833;SDS011;39735;51.432;5.482;2023-09-30T01:15:00;21.88;;;8.82;;
53833;SDS011;39735;51.432;5.482;2023-09-30T01:17:25;9.82;;;6.93;;
53833;SDS011;39735;51.432;5.482;2023-09-30T01:19:51;13.40;;;7.53;;
53833;SDS011;39735;51.432;5.482;2023-09-30T01:22:17;20.63;;;7.57;;
53833;SDS011;39735;51.432;5.482;2023-09-30T01:24:42;15.18;;;7.65;;
53833;SDS011;39735;51.432;5.482;2023-09-30T01:27:08;19.52;;;8.90;;
53833;SDS011;39735;51.432;5.482;2023-09-30T01:29:33;25.77;;;9.48;;
53833;SDS011;39735;51.432;5.482;2023-09-30T01:31:58;17.00;;;11.10;;
53833;SDS011;39735;51.432;5.482;2023-09-30T01:34:24;14.93;;;7.82;;
53833;SDS011;39735;51.432;5.482;2023-09-30T01:36:49;25.88;;;9.88;;
53833;SDS011;39735;51.432;5.482;2023-09-30T01:39:14;16.77;;;8.68;;
53833;SDS011;39735;51.432;5.482;2023-09-30T01:41:40;22.13;;;8.07;;
53833;SDS011;39735;51.432;5.482;2023-09-30T01:44:05;17.50;;;9.70;;
53833;SDS011;39735;51.432;5.482;2023-09-30T01:46:31;14.38;;;8.50;;
53833;SDS011;39735;51.432;5.482;2023-09-30T01:48:56;33.00;;;10.35;;
53833;SDS011;39735;51.432;5.482;2023-09-30T01:51:22;15.25;;;8.98;;
53833;SDS011;39735;51.432;5.482;2023-09-30T01:53:47;24.92;;;10.65;;
53833;SDS011;39735;51.432;5.482;2023-09-30T01:56:12;21.17;;;8.93;;
53833;SDS011;39735;51.432;5.482;2023-09-30T01:58:38;24.95;;;10.18;;
53833;SDS011;39735;51.432;5.482;2023-09-30T02:01:03;24.55;;;8.50;;
53833;SDS011;39735;51.432;5.482;2023-09-30T02:03:29;14.25;;;9.50;;
53833;SDS011;39735;51.432;5.482;2023-09-30T02:05:55;15.52;;;8.70;;
53833;SDS011;39735;51.432;5.482;2023-09-30T02:08:20;19.83;;;9.75;;
53833;SDS011;39735;51.432;5.482;2023-09-30T02:10:45;20.13;;;10.23;;
53833;SDS011;39735;51.432;5.482;2023-09-30T02:13:11;30.95;;;9.75;;
53833;SDS011;39735;51.432;5.482;2023-09-30T02:15:39;32.05;;;11.25;;
53833;SDS011;39735;51.432;5.482;2023-09-30T02:18:04;22.25;;;13.20;;
53833;SDS011;39735;51.432;5.482;2023-09-30T02:20:30;35.58;;;11.30;;
53833;SDS011;39735;51.432;5.482;2023-09-30T02:22:55;13.65;;;9.48;;
53833;SDS011;39735;51.432;5.482;2023-09-30T02:25:20;15.32;;;9.80;;
53833;SDS011;39735;51.432;5.482;2023-09-30T02:27:46;20.65;;;11.55;;
53833;SDS011;39735;51.432;5.482;2023-09-30T02:30:12;19.05;;;10.15;;
53833;SDS011;39735;51.432;5.482;2023-09-30T02:32:39;20.88;;;10.95;;
53833;SDS011;39735;51.432;5.482;2023-09-30T02:35:05;40.53;;;10.32;;
53833;SDS011;39735;51.432;5.482;2023-09-30T02:37:31;20.33;;;9.82;;
53833;SDS011;39735;51.432;5.482;2023-09-30T02:39:59;22.38;;;9.88;;
53833;SDS011;39735;51.432;5.482;2023-09-30T02:42:24;23.90;;;12.20;;
53833;SDS011;39735;51.432;5.482;2023-09-30T02:44:49;25.48;;;9.32;;
53833;SDS011;39735;51.432;5.482;2023-09-30T02:47:15;28.02;;;11.25;;
53833;SDS011;39735;51.432;5.482;2023-09-30T02:49:41;35.63;;;10.43;;
53833;SDS011;39735;51.432;5.482;2023-09-30T02:52:06;38.30;;;10.23;;
53833;SDS011;39735;51.432;5.482;2023-09-30T02:54:32;16.75;;;9.30;;
53833;SDS011;39735;51.432;5.482;2023-09-30T02:56:57;54.50;;;12.80;;
53833;SDS011;39735;51.432;5.482;2023-09-30T02:59:23;23.10;;;10.32;;
53833;SDS011;39735;51.432;5.482;2023-09-30T03:01:48;22.50;;;9.63;;
53833;SDS011;39735;51.432;5.482;2023-09-30T03:04:13;14.35;;;9.15;;
53833;SDS011;39735;51.432;5.482;2023-09-30T03:06:38;35.50;;;11.87;;
53833;SDS011;39735;51.432;5.482;2023-09-30T03:09:04;20.42;;;11.00;;
53833;SDS011;39735;51.432;5.482;2023-09-30T03:11:30;20.88;;;12.85;;
53833;SDS011;39735;51.432;5.482;2023-09-30T03:13:56;18.55;;;11.13;;
53833;SDS011;39735;51.432;5.482;2023-09-30T03:16:21;25.08;;;11.38;;
53833;SDS011;39735;51.432;5.482;2023-09-30T03:18:46;21.52;;;12.50;;
53833;SDS011;39735;51.432;5.482;2023-09-30T03:21:14;21.77;;;10.55;;
53833;SDS011;39735;51.432;5.482;2023-09-30T03:23:40;28.95;;;14.13;;
53833;SDS011;39735;51.432;5.482;2023-09-30T03:26:05;27.05;;;12.18;;
53833;SDS011;39735;51.432;5.482;2023-09-30T03:28:35;16.63;;;13.00;;
53833;SDS011;39735;51.432;5.482;2023-09-30T03:31:00;25.60;;;12.77;;
53833;SDS011;39735;51.432;5.482;2023-09-30T03:33:25;29.10;;;12.88;;
53833;SDS011;39735;51.432;5.482;2023-09-30T03:35:51;22.98;;;12.93;;
53833;SDS011;39735;51.432;5.482;2023-09-30T03:38:17;26.20;;;11.25;;
53833;SDS011;39735;51.432;5.482;2023-09-30T03:40:45;20.65;;;12.55;;
53833;SDS011;39735;51.432;5.482;2023-09-30T03:43:13;21.45;;;13.15;;
53833;SDS011;39735;51.432;5.482;2023-09-30T03:45:38;21.33;;;11.65;;
53833;SDS011;39735;51.432;5.482;2023-09-30T03:48:04;20.67;;;12.48;;
53833;SDS011;39735;51.432;5.482;2023-09-30T03:50:29;23.88;;;11.23;;
53833;SDS011;39735;51.432;5.482;2023-09-30T03:53:04;44.53;;;14.57;;
53833;SDS011;39735;51.432;5.482;2023-09-30T03:55:30;26.65;;;14.25;;
53833;SDS011;39735;51.432;5.482;2023-09-30T03:57:57;29.70;;;14.10;;
53833;SDS011;39735;51.432;5.482;2023-09-30T04:00:22;20.05;;;11.25;;
53833;SDS011;39735;51.432;5.482;2023-09-30T04:02:50;31.40;;;12.95;;
53833;SDS011;39735;51.432;5.482;2023-09-30T04:05:19;31.08;;;12.23;;
53833;SDS011;39735;51.432;5.482;2023-09-30T04:07:44;20.73;;;12.65;;
53833;SDS011;39735;51.432;5.482;2023-09-30T04:10:10;17.98;;;11.50;;
53833;SDS011;39735;51.432;5.482;2023-09-30T04:12:35;31.35;;;14.82;;
53833;SDS011;39735;51.432;5.482;2023-09-30T04:15:01;20.42;;;14.55;;
53833;SDS011;39735;51.432;5.482;2023-09-30T04:17:26;26.00;;;11.73;;
53833;SDS011;39735;51.432;5.482;2023-09-30T04:19:52;21.55;;;12.38;;
53833;SDS011;39735;51.432;5.482;2023-09-30T04:22:17;22.52;;;14.27;;
53833;SDS011;39735;51.432;5.482;2023-09-30T04:24:44;23.42;;;11.55;;
53833;SDS011;39735;51.432;5.482;2023-09-30T04:27:09;17.95;;;11.18;;
53833;SDS011;39735;51.432;5.482;2023-09-30T04:29:34;32.07;;;11.77;;
53833;SDS011;39735;51.432;5.482;2023-09-30T04:32:00;18.17;;;12.85;;
53833;SDS011;39735;51.432;5.482;2023-09-30T04:34:25;31.08;;;15.07;;
53833;SDS011;39735;51.432;5.482;2023-09-30T04:36:52;28.40;;;13.57;;
53833;SDS011;39735;51.432;5.482;2023-09-30T04:39:17;19.63;;;12.05;;
53833;SDS011;39735;51.432;5.482;2023-09-30T04:41:43;20.52;;;12.30;;
53833;SDS011;39735;51.432;5.482;2023-09-30T04:44:08;25.07;;;14.00;;
53833;SDS011;39735;51.432;5.482;2023-09-30T04:46:35;22.70;;;14.45;;
53833;SDS011;39735;51.432;5.482;2023-09-30T04:49:00;29.75;;;13.10;;
53833;SDS011;39735;51.432;5.482;2023-09-30T04:51:27;27.35;;;13.55;;
53833;SDS011;39735;51.432;5.482;2023-09-30T04:53:53;17.83;;;11.80;;
53833;SDS011;39735;51.432;5.482;2023-09-30T04:56:19;23.60;;;11.80;;
53833;SDS011;39735;51.432;5.482;2023-09-30T04:58:45;21.23;;;13.30;;
53833;SDS011;39735;51.432;5.482;2023-09-30T05:01:12;28.05;;;13.30;;
53833;SDS011;39735;51.432;5.482;2023-09-30T05:03:37;36.88;;;13.68;;
53833;SDS011;39735;51.432;5.482;2023-09-30T05:06:02;30.20;;;12.52;;
53833;SDS011;39735;51.432;5.482;2023-09-30T05:08:28;21.83;;;12.68;;
53833;SDS011;39735;51.432;5.482;2023-09-30T05:10:53;19.63;;;12.07;;
53833;SDS011;39735;51.432;5.482;2023-09-30T05:13:20;20.20;;;12.27;;
53833;SDS011;39735;51.432;5.482;2023-09-30T05:15:45;20.30;;;12.02;;
53833;SDS011;39735;51.432;5.482;2023-09-30T05:18:11;21.40;;;13.20;;
53833;SDS011;39735;51.432;5.482;2023-09-30T05:20:36;30.48;;;13.20;;
53833;SDS011;39735;51.432;5.482;2023-09-30T05:23:03;20.77;;;11.60;;
53833;SDS011;39735;51.432;5.482;2023-09-30T05:25:29;20.52;;;12.52;;
53833;SDS011;39735;51.432;5.482;2023-09-30T05:27:54;19.30;;;12.97;;
53833;SDS011;39735;51.432;5.482;2023-09-30T05:30:19;16.23;;;11.20;;
53833;SDS011;39735;51.432;5.482;2023-09-30T05:32:45;23.92;;;11.88;;
53833;SDS011;39735;51.432;5.482;2023-09-30T05:35:11;17.63;;;13.10;;
53833;SDS011;39735;51.432;5.482;2023-09-30T05:37:38;37.00;;;14.02;;
53833;SDS011;39735;51.432;5.482;2023-09-30T05:40:03;18.85;;;11.80;;
53833;SDS011;39735;51.432;5.482;2023-09-30T05:42:34;30.08;;;13.40;;
53833;SDS011;39735;51.432;5.482;2023-09-30T05:45:00;24.92;;;12.27;;
53833;SDS011;39735;51.432;5.482;2023-09-30T05:47:26;22.17;;;12.83;;
53833;SDS011;39735;51.432;5.482;2023-09-30T05:49:51;19.88;;;13.20;;
53833;SDS011;39735;51.432;5.482;2023-09-30T05:52:16;30.92;;;16.30;;
53833;SDS011;39735;51.432;5.482;2023-09-30T05:54:41;27.88;;;11.75;;
53833;SDS011;39735;51.432;5.482;2023-09-30T05:57:06;23.67;;;13.02;;
53833;SDS011;39735;51.432;5.482;2023-09-30T05:59:33;25.98;;;11.95;;
53833;SDS011;39735;51.432;5.482;2023-09-30T06:01:59;22.20;;;12.70;;
53833;SDS011;39735;51.432;5.482;2023-09-30T06:04:24;21.00;;;12.40;;
53833;SDS011;39735;51.432;5.482;2023-09-30T06:06:49;19.63;;;12.02;;
53833;SDS011;39735;51.432;5.482;2023-09-30T06:09:14;24.38;;;11.68;;
53833;SDS011;39735;51.432;5.482;2023-09-30T06:11:40;23.08;;;11.95;;
53833;SDS011;39735;51.432;5.482;2023-09-30T06:14:07;27.10;;;12.57;;
53833;SDS011;39735;51.432;5.482;2023-09-30T06:16:32;22.95;;;13.13;;
53833;SDS011;39735;51.432;5.482;2023-09-30T06:18:58;25.95;;;11.93;;
53833;SDS011;39735;51.432;5.482;2023-09-30T06:21:24;25.00;;;12.07;;
53833;SDS011;39735;51.432;5.482;2023-09-30T06:23:49;21.25;;;12.70;;
53833;SDS011;39735;51.432;5.482;2023-09-30T06:26:17;15.88;;;10.95;;
53833;SDS011;39735;51.432;5.482;2023-09-30T06:28:43;29.05;;;11.63;;
53833;SDS011;39735;51.432;5.482;2023-09-30T06:31:08;22.35;;;12.82;;
53833;SDS011;39735;51.432;5.482;2023-09-30T06:33:37;31.13;;;12.18;;
53833;SDS011;39735;51.432;5.482;2023-09-30T06:36:08;18.90;;;12.95;;
53833;SDS011;39735;51.432;5.482;2023-09-30T06:38:33;14.70;;;10.48;;
53833;SDS011;39735;51.432;5.482;2023-09-30T06:40:58;21.17;;;12.67;;
53833;SDS011;39735;51.432;5.482;2023-09-30T06:43:24;18.05;;;11.35;;
53833;SDS011;39735;51.432;5.482;2023-09-30T06:45:50;19.70;;;11.45;;
53833;SDS011;39735;51.432;5.482;2023-09-30T06:48:15;18.92;;;13.23;;
53833;SDS011;39735;51.432;5.482;2023-09-30T06:50:44;23.45;;;12.88;;
53833;SDS011;39735;51.432;5.482;2023-09-30T06:53:10;26.17;;;13.38;;
53833;SDS011;39735;51.432;5.482;2023-09-30T06:55:36;32.97;;;12.88;;
53833;SDS011;39735;51.432;5.482;2023-09-30T06:58:02;32.47;;;10.45;;
53833;SDS011;39735;51.432;5.482;2023-09-30T07:00:27;27.48;;;12.07;;
53833;SDS011;39735;51.432;5.482;2023-09-30T07:02:52;17.00;;;11.13;;
53833;SDS011;39735;51.432;5.482;2023-09-30T07:05:17;26.65;;;13.20;;
53833;SDS011;39735;51.432;5.482;2023-09-30T07:07:43;22.95;;;12.13;;
53833;SDS011;39735;51.432;5.482;2023-09-30T07:10:08;22.13;;;11.70;;
53833;SDS011;39735;51.432;5.482;2023-09-30T07:12:34;24.98;;;11.40;;
53833;SDS011;39735;51.432;5.482;2023-09-30T07:15:01;16.15;;;11.50;;
53833;SDS011;39735;51.432;5.482;2023-09-30T07:17:26;34.28;;;12.88;;
53833;SDS011;39735;51.432;5.482;2023-09-30T07:19:52;25.23;;;12.68;;
53833;SDS011;39735;51.432;5.482;2023-09-30T07:22:17;23.08;;;11.85;;
53833;SDS011;39735;51.432;5.482;2023-09-30T07:24:42;39.00;;;10.40;;
53833;SDS011;39735;51.432;5.482;2023-09-30T07:27:07;32.00;;;12.80;;
53833;SDS011;39735;51.432;5.482;2023-09-30T07:29:33;41.90;;;11.48;;
53833;SDS011;39735;51.432;5.482;2023-09-30T07:31:58;39.67;;;12.95;;
53833;SDS011;39735;51.432;5.482;2023-09-30T07:34:23;24.58;;;11.15;;
53833;SDS011;39735;51.432;5.482;2023-09-30T07:36:48;55.95;;;18.58;;
53833;SDS011;39735;51.432;5.482;2023-09-30T07:39:14;29.05;;;10.88;;
53833;SDS011;39735;51.432;5.482;2023-09-30T07:41:39;35.45;;;14.98;;
53833;SDS011;39735;51.432;5.482;2023-09-30T07:44:04;30.73;;;10.73;;
53833;SDS011;39735;51.432;5.482;2023-09-30T07:46:30;26.35;;;10.57;;
53833;SDS011;39735;51.432;5.482;2023-09-30T07:48:56;17.13;;;11.32;;
53833;SDS011;39735;51.432;5.482;2023-09-30T07:51:21;34.28;;;10.88;;
53833;SDS011;39735;51.432;5.482;2023-09-30T07:53:47;33.47;;;12.82;;
53833;SDS011;39735;51.432;5.482;2023-09-30T07:56:12;32.35;;;12.57;;
53833;SDS011;39735;51.432;5.482;2023-09-30T07:58:38;34.67;;;13.70;;
53833;SDS011;39735;51.432;5.482;2023-09-30T08:01:03;27.42;;;11.88;;
53833;SDS011;39735;51.432;5.482;2023-09-30T08:03:29;32.83;;;12.48;;
53833;SDS011;39735;51.432;5.482;2023-09-30T08:05:54;35.78;;;11.77;;
53833;SDS011;39735;51.432;5.482;2023-09-30T08:08:19;35.08;;;11.48;;
53833;SDS011;39735;51.432;5.482;2023-09-30T08:10:45;36.92;;;12.68;;
53833;SDS011;39735;51.432;5.482;2023-09-30T08:13:10;45.63;;;14.27;;
53833;SDS011;39735;51.432;5.482;2023-09-30T08:15:35;26.80;;;12.68;;
53833;SDS011;39735;51.432;5.482;2023-09-30T08:18:01;33.85;;;12.30;;
53833;SDS011;39735;51.432;5.482;2023-09-30T08:20:29;33.15;;;12.05;;
53833;SDS011;39735;51.432;5.482;2023-09-30T08:22:54;36.45;;;12.80;;
53833;SDS011;39735;51.432;5.482;2023-09-30T08:25:19;44.22;;;12.50;;
53833;SDS011;39735;51.432;5.482;2023-09-30T08:27:45;39.45;;;14.85;;
53833;SDS011;39735;51.432;5.482;2023-09-30T08:30:14;33.65;;;11.13;;
53833;SDS011;39735;51.432;5.482;2023-09-30T08:32:39;30.08;;;12.55;;
53833;SDS011;39735;51.432;5.482;2023-09-30T08:35:05;46.43;;;15.03;;
53833;SDS011;39735;51.432;5.482;2023-09-30T08:37:31;30.95;;;12.38;;
53833;SDS011;39735;51.432;5.482;2023-09-30T08:39:57;37.30;;;12.32;;
53833;SDS011;39735;51.432;5.482;2023-09-30T08:42:23;36.13;;;13.70;;
53833;SDS011;39735;51.432;5.482;2023-09-30T08:44:51;43.78;;;13.25;;
53833;SDS011;39735;51.432;5.482;2023-09-30T08:47:18;45.55;;;12.35;;
53833;SDS011;39735;51.432;5.482;2023-09-30T08:49:45;28.02;;;10.55;;
53833;SDS011;39735;51.432;5.482;2023-09-30T08:52:11;47.67;;;13.43;;
53833;SDS011;39735;51.432;5.482;2023-09-30T08:54:36;40.00;;;12.50;;
53833;SDS011;39735;51.432;5.482;2023-09-30T08:57:03;32.25;;;14.50;;
53833;SDS011;39735;51.432;5.482;2023-09-30T08:59:29;33.83;;;13.23;;
53833;SDS011;39735;51.432;5.482;2023-09-30T09:01:56;37.60;;;12.85;;
53833;SDS011;39735;51.432;5.482;2023-09-30T09:04:21;33.25;;;13.15;;
53833;SDS011;39735;51.432;5.482;2023-09-30T09:06:46;31.47;;;12.33;;
53833;SDS011;39735;51.432;5.482;2023-09-30T09:09:15;45.47;;;14.50;;
53833;SDS011;39735;51.432;5.482;2023-09-30T09:11:44;34.17;;;14.63;;
53833;SDS011;39735;51.432;5.482;2023-09-30T09:14:09;56.03;;;16.73;;
53833;SDS011;39735;51.432;5.482;2023-09-30T09:16:35;34.47;;;13.38;;
53833;SDS011;39735;51.432;5.482;2023-09-30T09:19:12;20.25;;;12.50;;
53833;SDS011;39735;51.432;5.482;2023-09-30T09:21:37;41.22;;;11.50;;
53833;SDS011;39735;51.432;5.482;2023-09-30T09:24:02;35.08;;;11.63;;
53833;SDS011;39735;51.432;5.482;2023-09-30T09:26:28;27.55;;;11.38;;
53833;SDS011;39735;51.432;5.482;2023-09-30T09:28:59;39.70;;;10.80;;
53833;SDS011;39735;51.432;5.482;2023-09-30T09:31:28;33.35;;;13.35;;
53833;SDS011;39735;51.432;5.482;2023-09-30T09:33:54;25.15;;;11.25;;
53833;SDS011;39735;51.432;5.482;2023-09-30T09:36:19;36.80;;;10.50;;
53833;SDS011;39735;51.432;5.482;2023-09-30T09:38:45;30.77;;;8.77;;
53833;SDS011;39735;51.432;5.482;2023-09-30T09:41:11;35.85;;;11.20;;
53833;SDS011;39735;51.432;5.482;2023-09-30T09:43:36;31.77;;;10.60;;
53833;SDS011;39735;51.432;5.482;2023-09-30T09:46:03;32.15;;;9.88;;
53833;SDS011;39735;51.432;5.482;2023-09-30T09:48:32;34.28;;;8.35;;
53833;SDS011;39735;51.432;5.482;2023-09-30T09:50:57;25.33;;;8.35;;
53833;SDS011;39735;51.432;5.482;2023-09-30T09:53:23;38.50;;;8.98;;
53833;SDS011;39735;51.432;5.482;2023-09-30T09:55:49;30.92;;;9.77;;
53833;SDS011;39735;51.432;5.482;2023-09-30T09:58:15;21.60;;;8.27;;
53833;SDS011;39735;51.432;5.482;2023-09-30T10:00:41;20.90;;;7.85;;
53833;SDS011;39735;51.432;5.482;2023-09-30T10:03:06;22.33;;;7.20;;
53833;SDS011;39735;51.432;5.482;2023-09-30T10:05:32;17.60;;;6.65;;
53833;SDS011;39735;51.432;5.482;2023-09-30T10:07:59;20.88;;;5.78;;
53833;SDS011;39735;51.432;5.482;2023-09-30T10:10:25;32.63;;;8.25;;
53833;SDS011;39735;51.432;5.482;2023-09-30T10:12:51;18.63;;;5.85;;
53833;SDS011;39735;51.432;5.482;2023-09-30T10:18:03;23.65;;;5.60;;
53833;SDS011;39735;51.432;5.482;2023-09-30T10:20:32;27.58;;;8.15;;
53833;SDS011;39735;51.432;5.482;2023-09-30T10:25:42;15.45;;;6.90;;
53833;SDS011;39735;51.432;5.482;2023-09-30T10:31:19;19.23;;;5.75;;
53833;SDS011;39735;51.432;5.482;2023-09-30T10:36:39;17.10;;;6.05;;
53833;SDS011;39735;51.432;5.482;2023-09-30T10:39:06;20.65;;;5.13;;
53833;SDS011;39735;51.432;5.482;2023-09-30T10:46:50;20.40;;;4.45;;
53833;SDS011;39735;51.432;5.482;2023-09-30T10:49:36;10.10;;;4.30;;
53833;SDS011;39735;51.432;5.482;2023-09-30T10:52:03;15.88;;;4.78;;
53833;SDS011;39735;51.432;5.482;2023-09-30T10:54:30;36.92;;;9.82;;
53833;SDS011;39735;51.432;5.482;2023-09-30T10:56:56;16.38;;;5.10;;
53833;SDS011;39735;51.432;5.482;2023-09-30T10:59:24;20.20;;;5.10;;
53833;SDS011;39735;51.432;5.482;2023-09-30T11:01:50;19.95;;;5.35;;
53833;SDS011;39735;51.432;5.482;2023-09-30T11:04:15;15.50;;;4.30;;
53833;SDS011;39735;51.432;5.482;2023-09-30T11:06:41;21.17;;;5.32;;
53833;SDS011;39735;51.432;5.482;2023-09-30T11:09:07;18.00;;;5.57;;
53833;SDS011;39735;51.432;5.482;2023-09-30T11:11:41;34.47;;;8.45;;
53833;SDS011;39735;51.432;5.482;2023-09-30T11:14:20;24.70;;;5.85;;
53833;SDS011;39735;51.432;5.482;2023-09-30T11:16:46;22.63;;;5.80;;
53833;SDS011;39735;51.432;5.482;2023-09-30T11:19:11;20.30;;;4.30;;
53833;SDS011;39735;51.432;5.482;2023-09-30T11:21:37;15.00;;;5.93;;
53833;SDS011;39735;51.432;5.482;2023-09-30T11:24:02;34.00;;;7.93;;
53833;SDS011;39735;51.432;5.482;2023-09-30T11:26:31;14.65;;;4.82;;
53833;SDS011;39735;51.432;5.482;2023-09-30T11:29:04;19.58;;;5.13;;
53833;SDS011;39735;51.432;5.482;2023-09-30T11:31:29;21.52;;;6.20;;
53833;SDS011;39735;51.432;5.482;2023-09-30T11:33:58;19.95;;;5.22;;
53833;SDS011;39735;51.432;5.482;2023-09-30T11:36:28;15.80;;;5.93;;
53833;SDS011;39735;51.432;5.482;2023-09-30T11:38:55;11.52;;;4.00;;
53833;SDS011;39735;51.432;5.482;2023-09-30T11:41:20;14.37;;;4.40;;
53833;SDS011;39735;51.432;5.482;2023-09-30T11:44:06;10.73;;;4.75;;
53833;SDS011;39735;51.432;5.482;2023-09-30T11:46:48;23.23;;;6.07;;
53833;SDS011;39735;51.432;5.482;2023-09-30T11:49:16;22.75;;;4.30;;
53833;SDS011;39735;51.432;5.482;2023-09-30T11:51:48;14.18;;;5.47;;
53833;SDS011;39735;51.432;5.482;2023-09-30T11:54:14;11.90;;;3.80;;
53833;SDS011;39735;51.432;5.482;2023-09-30T11:56:39;15.10;;;3.83;;
53833;SDS011;39735;51.432;5.482;2023-09-30T11:59:04;8.10;;;3.85;;
53833;SDS011;39735;51.432;5.482;2023-09-30T12:01:30;20.17;;;4.80;;
53833;SDS011;39735;51.432;5.482;2023-09-30T12:03:57;10.35;;;3.75;;
53833;SDS011;39735;51.432;5.482;2023-09-30T12:06:22;12.95;;;4.65;;
53833;SDS011;39735;51.432;5.482;2023-09-30T12:08:47;12.90;;;5.05;;
53833;SDS011;39735;51.432;5.482;2023-09-30T12:11:13;11.50;;;3.88;;
53833;SDS011;39735;51.432;5.482;2023-09-30T12:13:40;14.05;;;5.85;;
53833;SDS011;39735;51.432;5.482;2023-09-30T12:16:06;27.35;;;5.28;;
53833;SDS011;39735;51.432;5.482;2023-09-30T12:18:32;14.35;;;4.88;;
53833;SDS011;39735;51.432;5.482;2023-09-30T12:20:57;11.00;;;4.95;;
53833;SDS011;39735;51.432;5.482;2023-09-30T12:23:22;9.65;;;4.47;;
53833;SDS011;39735;51.432;5.482;2023-09-30T12:25:48;20.85;;;4.05;;
53833;SDS011;39735;51.432;5.482;2023-09-30T12:28:14;18.00;;;3.92;;
53833;SDS011;39735;51.432;5.482;2023-09-30T12:30:40;11.98;;;3.72;;
53833;SDS011;39735;51.432;5.482;2023-09-30T12:33:06;12.10;;;4.28;;
53833;SDS011;39735;51.432;5.482;2023-09-30T12:35:31;2.53;;;2.17;;
53833;SDS011;39735;51.432;5.482;2023-09-30T12:37:57;12.50;;;3.65;;
53833;SDS011;39735;51.432;5.482;2023-09-30T12:40:22;14.77;;;4.22;;
53833;SDS011;39735;51.432;5.482;2023-09-30T12:42:48;21.15;;;6.80;;
53833;SDS011;39735;51.432;5.482;2023-09-30T12:45:14;16.15;;;4.03;;
53833;SDS011;39735;51.432;5.482;2023-09-30T12:47:39;14.93;;;4.63;;
53833;SDS011;39735;51.432;5.482;2023-09-30T12:50:04;23.67;;;5.95;;
53833;SDS011;39735;51.432;5.482;2023-09-30T12:52:29;16.67;;;4.78;;
53833;SDS011;39735;51.432;5.482;2023-09-30T12:54:57;24.65;;;5.07;;
53833;SDS011;39735;51.432;5.482;2023-09-30T12:57:22;18.83;;;4.30;;
53833;SDS011;39735;51.432;5.482;2023-09-30T12:59:47;19.92;;;5.55;;
53833;SDS011;39735;51.432;5.482;2023-09-30T13:02:14;12.13;;;3.88;;
53833;SDS011;39735;51.432;5.482;2023-09-30T13:04:39;9.48;;;4.55;;
53833;SDS011;39735;51.432;5.482;2023-09-30T13:07:11;17.45;;;4.20;;
53833;SDS011;39735;51.432;5.482;2023-09-30T13:09:38;10.38;;;3.78;;
53833;SDS011;39735;51.432;5.482;2023-09-30T13:12:03;19.88;;;3.70;;
53833;SDS011;39735;51.432;5.482;2023-09-30T13:14:28;19.40;;;3.47;;
53833;SDS011;39735;51.432;5.482;2023-09-30T13:16:54;16.77;;;5.40;;
53833;SDS011;39735;51.432;5.482;2023-09-30T13:19:19;18.42;;;3.95;;
53833;SDS011;39735;51.432;5.482;2023-09-30T13:21:46;28.38;;;4.97;;
53833;SDS011;39735;51.432;5.482;2023-09-30T13:24:12;6.68;;;3.40;;
53833;SDS011;39735;51.432;5.482;2023-09-30T13:26:37;38.63;;;4.43;;
53833;SDS011;39735;51.432;5.482;2023-09-30T13:29:02;12.98;;;4.75;;
53833;SDS011;39735;51.432;5.482;2023-09-30T13:31:30;13.52;;;5.03;;
53833;SDS011;39735;51.432;5.482;2023-09-30T13:33:55;7.18;;;3.88;;
53833;SDS011;39735;51.432;5.482;2023-09-30T13:36:20;17.27;;;4.43;;
53833;SDS011;39735;51.432;5.482;2023-09-30T13:38:45;21.37;;;4.87;;
53833;SDS011;39735;51.432;5.482;2023-09-30T13:41:11;24.95;;;7.07;;
53833;SDS011;39735;51.432;5.482;2023-09-30T13:43:36;8.77;;;3.50;;
53833;SDS011;39735;51.432;5.482;2023-09-30T13:46:04;12.75;;;5.22;;
53833;SDS011;39735;51.432;5.482;2023-09-30T13:48:32;10.25;;;3.63;;
53833;SDS011;39735;51.432;5.482;2023-09-30T13:51:03;20.23;;;4.00;;
53833;SDS011;39735;51.432;5.482;2023-09-30T13:53:29;9.63;;;5.05;;
53833;SDS011;39735;51.432;5.482;2023-09-30T13:55:54;12.70;;;5.22;;
53833;SDS011;39735;51.432;5.482;2023-09-30T13:58:19;20.37;;;4.30;;
53833;SDS011;39735;51.432;5.482;2023-09-30T14:00:47;12.10;;;3.57;;
53833;SDS011;39735;51.432;5.482;2023-09-30T14:03:13;6.47;;;3.83;;
53833;SDS011;39735;51.432;5.482;2023-09-30T14:05:38;16.55;;;4.50;;
53833;SDS011;39735;51.432;5.482;2023-09-30T14:08:04;17.17;;;4.20;;
53833;SDS011;39735;51.432;5.482;2023-09-30T14:10:31;13.93;;;4.55;;
53833;SDS011;39735;51.432;5.482;2023-09-30T14:12:56;8.82;;;4.13;;
53833;SDS011;39735;51.432;5.482;2023-09-30T14:15:22;10.90;;;3.47;;
53833;SDS011;39735;51.432;5.482;2023-09-30T14:17:48;12.73;;;4.43;;
53833;SDS011;39735;51.432;5.482;2023-09-30T14:20:13;13.50;;;4.20;;
53833;SDS011;39735;51.432;5.482;2023-09-30T14:22:38;8.55;;;4.18;;
53833;SDS011;39735;51.432;5.482;2023-09-30T14:25:04;9.40;;;5.38;;
53833;SDS011;39735;51.432;5.482;2023-09-30T14:27:29;9.98;;;4.18;;
53833;SDS011;39735;51.432;5.482;2023-09-30T14:29:54;13.77;;;4.80;;
53833;SDS011;39735;51.432;5.482;2023-09-30T14:32:20;11.95;;;3.92;;
53833;SDS011;39735;51.432;5.482;2023-09-30T14:34:45;15.82;;;6.15;;
53833;SDS011;39735;51.432;5.482;2023-09-30T14:37:10;33.03;;;5.63;;
53833;SDS011;39735;51.432;5.482;2023-09-30T14:39:36;17.20;;;3.80;;